createdAt,value
2023-03-17T00:01:37.013Z,1.99
2023-03-17T00:04:04.981Z,2.27
2023-03-17T00:06:33.842Z,2.80
2023-03-17T00:09:02.096Z,2.54
2023-03-17T00:11:29.890Z,2.37
2023-03-17T00:13:59.829Z,2.52
2023-03-17T00:16:33.190Z,2.25
2023-03-17T00:19:01.007Z,1.81
2023-03-17T00:21:30.604Z,1.98
2023-03-17T00:23:58.605Z,2.29
2023-03-17T00:26:26.784Z,2.59
2023-03-17T00:28:55.103Z,1.99
2023-03-17T00:31:24.513Z,2.50
2023-03-17T00:33:54.047Z,1.86
2023-03-17T00:36:28.453Z,1.42
2023-03-17T00:38:56.389Z,1.75
2023-03-17T00:41:27.133Z,1.83
2023-03-17T00:43:55.376Z,1.93
2023-03-17T00:46:27.848Z,2.60
2023-03-17T00:48:55.765Z,1.75
2023-03-17T00:51:23.552Z,1.78
2023-03-17T00:53:51.768Z,1.37
2023-03-17T00:56:20.965Z,1.60
2023-03-17T00:58:48.840Z,2.45
2023-03-17T01:01:18.446Z,2.80
2023-03-17T01:03:48.167Z,2.28
2023-03-17T01:06:15.895Z,2.49
2023-03-17T01:08:44.762Z,2.50
2023-03-17T01:11:18.972Z,2.88
2023-03-17T01:13:48.298Z,3.02
2023-03-17T01:16:17.129Z,2.93
2023-03-17T01:18:45.654Z,3.07
2023-03-17T01:21:14.001Z,2.72
2023-03-17T01:23:42.180Z,2.73
2023-03-17T01:26:09.947Z,2.98
2023-03-17T01:28:37.952Z,3.03
2023-03-17T01:31:05.785Z,2.45
2023-03-17T01:33:33.725Z,2.82
2023-03-17T01:36:01.543Z,2.80
2023-03-17T01:38:29.750Z,2.71
2023-03-17T01:40:57.511Z,3.14
2023-03-17T01:43:27.645Z,3.18
2023-03-17T01:46:13.867Z,3.25
2023-03-17T01:48:59.651Z,3.02
2023-03-17T01:51:31.876Z,2.63
2023-03-17T01:54:01.439Z,3.13
2023-03-17T01:56:30.219Z,3.00
2023-03-17T01:58:58.605Z,3.13
2023-03-17T02:01:29.142Z,3.38
2023-03-17T02:03:57.110Z,3.42
2023-03-17T02:06:25.709Z,3.41
2023-03-17T02:08:53.793Z,3.42
2023-03-17T02:11:22.514Z,3.53
2023-03-17T02:13:50.291Z,3.57
2023-03-17T02:16:18.137Z,3.36
2023-03-17T02:18:48.129Z,3.29
2023-03-17T02:21:37.170Z,3.46
2023-03-17T02:24:08.435Z,3.52
2023-03-17T02:26:36.884Z,3.36
2023-03-17T02:29:06.020Z,3.39
2023-03-17T02:31:34.763Z,3.42
2023-03-17T02:34:02.830Z,3.34
2023-03-17T02:36:30.628Z,3.11
2023-03-17T02:38:58.384Z,3.43
2023-03-17T02:41:30.404Z,3.28
2023-03-17T02:43:58.107Z,3.39
2023-03-17T02:46:26.327Z,3.42
2023-03-17T02:48:54.280Z,3.37
2023-03-17T02:51:21.999Z,3.31
2023-03-17T02:53:49.723Z,3.25
2023-03-17T02:56:17.493Z,3.22
2023-03-17T02:58:45.437Z,3.28
2023-03-17T03:01:13.208Z,3.24
2023-03-17T03:03:41.413Z,3.39
2023-03-17T03:06:09.165Z,3.47
2023-03-17T03:08:36.893Z,3.35
2023-03-17T03:11:05.092Z,3.41
2023-03-17T03:13:33.024Z,3.39
2023-03-17T03:16:00.868Z,3.43
2023-03-17T03:18:28.600Z,3.35
2023-03-17T03:20:56.516Z,3.45
2023-03-17T03:23:24.263Z,3.32
2023-03-17T03:25:51.993Z,3.42
2023-03-17T03:28:19.749Z,3.48
2023-03-17T03:30:47.594Z,3.26
2023-03-17T03:33:15.481Z,3.41
2023-03-17T03:35:44.413Z,3.44
2023-03-17T03:38:12.535Z,3.44
2023-03-17T03:40:40.209Z,3.51
2023-03-17T03:43:21.794Z,3.39
2023-03-17T03:45:51.331Z,3.42
2023-03-17T03:48:19.073Z,3.30
2023-03-17T03:50:46.928Z,3.45
2023-03-17T03:53:15.283Z,3.43
2023-03-17T03:55:43.033Z,3.07
2023-03-17T03:58:11.359Z,3.14
2023-03-17T04:00:39.036Z,3.34
2023-03-17T04:03:06.781Z,3.33
2023-03-17T04:05:34.540Z,3.45
2023-03-17T04:08:02.285Z,3.53
2023-03-17T04:10:30.237Z,3.45
2023-03-17T04:12:58.070Z,3.35
2023-03-17T04:15:25.926Z,3.50
2023-03-17T04:17:55.077Z,3.37
2023-03-17T04:20:22.785Z,3.40
2023-03-17T04:22:50.470Z,3.42
2023-03-17T04:25:18.813Z,3.53
2023-03-17T04:27:46.638Z,3.28
2023-03-17T04:30:14.774Z,3.41
2023-03-17T04:32:43.247Z,3.34
2023-03-17T04:35:16.304Z,3.41
2023-03-17T04:37:44.120Z,3.45
2023-03-17T04:40:12.682Z,3.45
2023-03-17T04:42:40.732Z,3.52
2023-03-17T04:45:10.023Z,3.48
2023-03-17T04:47:37.859Z,3.53
2023-03-17T04:50:06.039Z,3.53
2023-03-17T04:52:34.033Z,3.57
2023-03-17T04:55:01.731Z,3.51
2023-03-17T04:57:29.467Z,3.53
2023-03-17T04:59:57.706Z,3.46
2023-03-17T05:02:26.331Z,3.47
2023-03-17T05:04:54.047Z,3.46
2023-03-17T05:07:21.838Z,3.40
2023-03-17T05:09:49.503Z,3.42
2023-03-17T05:12:17.193Z,3.36
2023-03-17T05:14:44.864Z,3.29
2023-03-17T05:17:12.662Z,3.50
2023-03-17T05:19:40.750Z,3.36
2023-03-17T05:22:08.546Z,3.49
2023-03-17T05:24:36.312Z,3.46
2023-03-17T05:27:04.161Z,3.60
2023-03-17T05:29:31.899Z,3.65
2023-03-17T05:31:59.624Z,3.59
2023-03-17T05:34:27.536Z,3.59
2023-03-17T05:36:55.485Z,3.54
2023-03-17T05:39:23.201Z,3.59
2023-03-17T05:41:51.227Z,3.37
2023-03-17T05:44:20.388Z,3.39
2023-03-17T05:46:48.169Z,3.49
2023-03-17T05:49:15.919Z,3.46
2023-03-17T05:51:43.639Z,3.50
2023-03-17T05:54:11.338Z,3.56
2023-03-17T05:56:39.203Z,3.59
2023-03-17T05:59:06.890Z,3.53
2023-03-17T06:01:34.648Z,3.55
2023-03-17T06:04:03.257Z,3.62
2023-03-17T06:06:31.043Z,3.65
2023-03-17T06:08:58.708Z,3.69
2023-03-17T06:11:26.744Z,3.73
2023-03-17T06:13:54.547Z,3.68
2023-03-17T06:16:22.395Z,3.71
2023-03-17T06:18:50.234Z,3.70
2023-03-17T06:21:17.896Z,3.73
2023-03-17T06:23:45.617Z,3.77
2023-03-17T06:26:13.316Z,3.72
2023-03-17T06:28:41.158Z,3.84
2023-03-17T06:31:09.362Z,3.84
2023-03-17T06:33:37.148Z,3.95
2023-03-17T06:36:05.324Z,3.93
2023-03-17T06:38:33.064Z,3.85
2023-03-17T06:41:00.742Z,3.86
2023-03-17T06:43:28.488Z,4.03
2023-03-17T06:45:56.238Z,3.97
2023-03-17T06:48:23.973Z,4.00
2023-03-17T06:50:51.681Z,3.70
2023-03-17T06:53:19.429Z,3.68
2023-03-17T06:55:47.256Z,3.81
2023-03-17T06:58:15.968Z,4.01
2023-03-17T07:00:45.528Z,4.16
2023-03-17T07:03:13.448Z,4.25
2023-03-17T07:05:41.760Z,4.28
2023-03-17T07:08:09.525Z,4.18
2023-03-17T07:10:37.263Z,4.39
2023-03-17T07:13:07.751Z,4.21
2023-03-17T07:15:35.923Z,4.09
2023-03-17T07:18:04.234Z,4.20
2023-03-17T07:20:32.161Z,4.02
2023-03-17T07:22:59.917Z,4.35
2023-03-17T07:25:27.596Z,4.20
2023-03-17T07:27:55.943Z,4.47
2023-03-17T07:30:23.676Z,4.04
2023-03-17T07:32:51.586Z,4.33
2023-03-17T07:35:19.463Z,4.30
2023-03-17T07:37:47.407Z,4.26
2023-03-17T07:40:15.141Z,4.22
2023-03-17T07:42:42.897Z,4.32
2023-03-17T07:45:11.177Z,4.70
2023-03-17T07:47:39.359Z,4.62
2023-03-17T07:50:07.356Z,4.63
2023-03-17T07:52:35.311Z,4.42
2023-03-17T07:55:03.096Z,4.28
2023-03-17T07:57:30.878Z,4.57
2023-03-17T07:59:58.833Z,4.52
2023-03-17T08:02:26.606Z,4.32
2023-03-17T08:04:54.350Z,4.61
2023-03-17T08:07:22.099Z,4.72
2023-03-17T08:09:49.977Z,4.71
2023-03-17T08:12:17.782Z,4.81
2023-03-17T08:14:45.654Z,4.81
2023-03-17T08:17:13.636Z,4.61
2023-03-17T08:19:41.345Z,4.84
2023-03-17T08:22:09.677Z,4.90
2023-03-17T08:24:38.367Z,4.99
2023-03-17T08:27:06.124Z,4.63
2023-03-17T08:29:33.861Z,4.95
2023-03-17T08:32:01.687Z,5.09
2023-03-17T08:34:29.434Z,4.68
2023-03-17T08:36:57.352Z,4.87
2023-03-17T08:39:25.364Z,4.79
2023-03-17T08:41:53.092Z,4.96
2023-03-17T08:44:21.873Z,5.22
2023-03-17T08:46:49.593Z,5.13
2023-03-17T08:49:17.574Z,5.40
2023-03-17T08:51:45.280Z,5.51
2023-03-17T08:54:12.988Z,4.87
2023-03-17T08:56:40.846Z,5.01
2023-03-17T08:59:08.831Z,5.15
2023-03-17T09:01:37.626Z,4.88
2023-03-17T09:04:05.780Z,5.31
2023-03-17T09:06:33.488Z,5.52
2023-03-17T09:09:01.304Z,5.18
2023-03-17T09:11:29.696Z,5.31
2023-03-17T09:13:57.431Z,4.88
2023-03-17T09:16:25.353Z,5.07
2023-03-17T09:18:53.168Z,5.52
2023-03-17T09:21:21.339Z,5.46
2023-03-17T09:23:49.182Z,5.53
2023-03-17T09:26:17.057Z,5.81
2023-03-17T09:28:44.948Z,5.96
2023-03-17T09:31:12.962Z,6.02
2023-03-17T09:33:41.639Z,6.17
2023-03-17T09:36:10.106Z,6.02
2023-03-17T09:38:38.495Z,5.84
2023-03-17T09:41:08.776Z,6.01
2023-03-17T09:43:39.004Z,6.36
2023-03-17T09:46:35.200Z,6.09
2023-03-17T09:49:05.135Z,5.79
2023-03-17T09:51:32.881Z,5.85
2023-03-17T09:54:02.885Z,5.79
2023-03-17T09:56:32.479Z,6.39
2023-03-17T09:59:05.777Z,6.10
2023-03-17T10:01:33.635Z,5.43
2023-03-17T10:04:02.599Z,5.64
2023-03-17T10:06:41.060Z,6.19
2023-03-17T10:09:32.462Z,5.74
2023-03-17T10:12:12.940Z,5.61
2023-03-17T10:15:04.024Z,5.87
2023-03-17T10:17:34.555Z,5.91
2023-03-17T10:20:21.734Z,6.00
2023-03-17T10:23:08.338Z,5.52
2023-03-17T10:25:36.638Z,5.70
2023-03-17T10:28:16.644Z,5.62
2023-03-17T10:30:44.905Z,5.81
2023-03-17T10:33:12.994Z,6.33
2023-03-17T10:35:41.328Z,5.90
2023-03-17T10:38:21.578Z,6.48
2023-03-17T10:40:59.972Z,5.65
2023-03-17T10:43:36.115Z,5.29
2023-03-17T10:46:05.666Z,6.17
2023-03-17T10:48:37.877Z,6.65
2023-03-17T10:51:09.516Z,6.53
2023-03-17T10:53:38.776Z,6.62
2023-03-17T10:56:10.446Z,6.85
2023-03-17T10:58:41.704Z,6.67
2023-03-17T11:01:21.581Z,6.49
2023-03-17T11:03:49.601Z,6.29
2023-03-17T11:06:19.230Z,7.21
2023-03-17T11:08:54.833Z,6.97
2023-03-17T11:11:22.613Z,7.21
2023-03-17T11:13:50.324Z,7.82
2023-03-17T11:16:22.452Z,7.12
2023-03-17T11:18:52.744Z,7.07
2023-03-17T11:21:23.356Z,6.30
2023-03-17T11:24:05.921Z,7.25
2023-03-17T11:27:00.017Z,8.07
2023-03-17T11:29:30.953Z,8.51
2023-03-17T11:32:29.357Z,8.25
2023-03-17T11:35:12.476Z,8.28
2023-03-17T11:38:11.042Z,8.19
2023-03-17T11:40:56.057Z,8.15
2023-03-17T11:43:48.123Z,7.18
2023-03-17T11:46:37.046Z,7.78
2023-03-17T11:49:16.592Z,7.70
2023-03-17T11:52:03.290Z,7.60
2023-03-17T11:54:57.099Z,6.75
2023-03-17T11:57:30.341Z,7.55
2023-03-17T12:00:05.835Z,7.36
2023-03-17T12:02:41.297Z,7.24
2023-03-17T12:05:27.695Z,6.85
2023-03-17T12:08:23.409Z,6.46
2023-03-17T12:10:54.642Z,6.28
2023-03-17T12:13:51.594Z,6.75
2023-03-17T12:16:41.413Z,6.56
2023-03-17T12:19:28.394Z,5.98
2023-03-17T12:22:02.251Z,5.34
2023-03-17T12:24:40.341Z,5.36
2023-03-17T12:27:16.987Z,5.83
2023-03-17T12:29:50.001Z,6.18
2023-03-17T12:32:40.474Z,7.05
2023-03-17T12:35:31.886Z,6.34
2023-03-17T12:38:02.787Z,6.53
2023-03-17T12:40:34.890Z,6.25
2023-03-17T12:43:21.359Z,6.23
2023-03-17T12:45:54.197Z,6.52
2023-03-17T12:48:33.671Z,6.67
2023-03-17T12:51:23.065Z,5.46
2023-03-17T12:53:51.832Z,6.24
2023-03-17T12:56:19.622Z,6.18
2023-03-17T12:58:49.412Z,5.62
2023-03-17T13:01:32.719Z,5.80
2023-03-17T13:04:00.339Z,6.19
2023-03-17T13:06:30.465Z,5.55
2023-03-17T13:08:58.211Z,6.10
2023-03-17T13:11:53.221Z,5.56
2023-03-17T13:14:27.091Z,5.55
2023-03-17T13:17:25.637Z,5.22
2023-03-17T13:19:59.403Z,6.16
2023-03-17T13:23:03.750Z,6.14
2023-03-17T13:25:33.833Z,6.50
2023-03-17T13:28:10.958Z,6.42
2023-03-17T13:30:38.738Z,6.47
2023-03-17T13:33:10.641Z,6.29
2023-03-17T13:35:38.660Z,6.28
2023-03-17T13:38:14.626Z,5.89
2023-03-17T13:40:49.996Z,6.54
2023-03-17T13:43:23.781Z,6.58
2023-03-17T13:45:51.539Z,6.01
2023-03-17T13:48:29.420Z,5.83
2023-03-17T13:51:16.662Z,4.98
2023-03-17T13:53:47.120Z,4.92
2023-03-17T13:56:46.656Z,5.09
2023-03-17T13:59:15.909Z,4.95
2023-03-17T14:01:58.394Z,4.80
2023-03-17T14:04:50.368Z,5.53
2023-03-17T14:07:19.857Z,5.54
2023-03-17T14:09:48.533Z,5.02
2023-03-17T14:12:22.080Z,5.02
2023-03-17T14:14:52.695Z,4.62
2023-03-17T14:17:29.010Z,4.79
2023-03-17T14:20:08.187Z,5.03
2023-03-17T14:22:41.211Z,4.51
2023-03-17T14:25:18.714Z,4.72
2023-03-17T14:27:48.688Z,4.96
2023-03-17T14:30:21.665Z,5.06
2023-03-17T14:32:57.888Z,4.59
2023-03-17T14:35:32.523Z,4.94
2023-03-17T14:38:01.304Z,4.75
2023-03-17T14:40:32.285Z,5.17
2023-03-17T14:42:59.979Z,5.03
2023-03-17T14:45:47.741Z,5.07
2023-03-17T14:48:17.302Z,4.83
2023-03-17T14:50:55.561Z,5.51
2023-03-17T14:53:24.249Z,5.45
2023-03-17T14:55:52.515Z,5.18
2023-03-17T14:58:27.121Z,4.95
2023-03-17T15:01:05.897Z,5.19
2023-03-17T15:03:38.372Z,5.21
2023-03-17T15:06:07.670Z,5.61
2023-03-17T15:08:36.496Z,5.09
2023-03-17T15:11:04.696Z,5.20
2023-03-17T15:13:36.914Z,4.90
2023-03-17T15:16:29.509Z,4.73
2023-03-17T15:19:08.897Z,5.07
2023-03-17T15:21:41.710Z,4.89
2023-03-17T15:24:39.419Z,5.01
2023-03-17T15:27:15.370Z,5.16
2023-03-17T15:29:43.251Z,4.33
2023-03-17T15:32:23.999Z,4.69
2023-03-17T15:34:53.039Z,5.62
2023-03-17T15:37:23.577Z,5.70
2023-03-17T15:39:52.890Z,5.63
2023-03-17T15:42:22.913Z,5.46
2023-03-17T15:44:51.352Z,5.61
2023-03-17T15:47:23.338Z,5.08
2023-03-17T15:49:51.204Z,5.83
2023-03-17T15:52:26.753Z,6.22
2023-03-17T15:54:56.228Z,6.18
2023-03-17T15:57:24.441Z,6.49
2023-03-17T15:59:52.119Z,6.48
2023-03-17T16:02:35.549Z,6.49
2023-03-17T16:05:12.087Z,6.65
2023-03-17T16:07:40.080Z,6.70
2023-03-17T16:10:18.781Z,6.74
2023-03-17T16:12:47.311Z,6.83
2023-03-17T16:15:23.620Z,6.87
2023-03-17T16:17:53.657Z,6.80
2023-03-17T16:20:26.086Z,6.76
2023-03-17T16:22:55.222Z,6.71
2023-03-17T16:25:22.838Z,6.63
2023-03-17T16:27:50.655Z,6.55
2023-03-17T16:30:23.535Z,6.66
2023-03-17T16:32:51.553Z,6.63
2023-03-17T16:35:20.924Z,6.13
2023-03-17T16:37:48.841Z,6.42
2023-03-17T16:40:25.557Z,6.41
2023-03-17T16:42:53.554Z,6.25
2023-03-17T16:45:33.003Z,6.31
2023-03-17T16:48:02.954Z,6.21
2023-03-17T16:50:32.194Z,5.99
2023-03-17T16:53:00.327Z,6.22
2023-03-17T16:55:28.234Z,6.15
2023-03-17T16:57:57.494Z,5.97
2023-03-17T17:00:27.753Z,5.87
2023-03-17T17:02:55.766Z,5.87
2023-03-17T17:05:25.322Z,5.36
2023-03-17T17:07:56.234Z,5.23
2023-03-17T17:10:25.593Z,4.79
2023-03-17T17:12:53.483Z,4.27
2023-03-17T17:15:21.512Z,4.19
2023-03-17T17:17:51.048Z,4.29
2023-03-17T17:20:21.776Z,4.17
2023-03-17T17:22:49.692Z,4.10
2023-03-17T17:25:17.636Z,4.22
2023-03-17T17:27:45.663Z,4.04
2023-03-17T17:30:15.459Z,3.63
2023-03-17T17:32:43.300Z,3.49
2023-03-17T17:35:11.840Z,3.68
2023-03-17T17:37:39.707Z,3.88
2023-03-17T17:40:08.579Z,3.67
2023-03-17T17:42:36.363Z,3.78
2023-03-17T17:45:04.357Z,3.66
2023-03-17T17:47:32.740Z,3.52
2023-03-17T17:50:00.730Z,3.41
2023-03-17T17:52:28.991Z,3.73
2023-03-17T17:54:57.200Z,3.64
2023-03-17T17:57:25.108Z,3.39
2023-03-17T17:59:52.817Z,3.11
2023-03-17T18:02:20.498Z,3.25
2023-03-17T18:04:48.251Z,3.25
2023-03-17T18:07:16.012Z,2.89
2023-03-17T18:09:43.687Z,2.83
2023-03-17T18:12:11.481Z,3.00
2023-03-17T18:14:39.174Z,3.10
2023-03-17T18:17:07.684Z,2.98
2023-03-17T18:19:35.445Z,3.27
2023-03-17T18:22:03.734Z,2.80
2023-03-17T18:24:31.454Z,3.35
2023-03-17T18:26:59.245Z,3.25
2023-03-17T18:29:27.725Z,3.52
2023-03-17T18:31:55.734Z,3.56
2023-03-17T18:34:26.024Z,3.66
2023-03-17T18:36:54.233Z,3.29
2023-03-17T18:39:21.902Z,3.45
2023-03-17T18:41:49.704Z,2.82
2023-03-17T18:44:18.948Z,2.67
2023-03-17T18:46:46.895Z,2.20
2023-03-17T18:49:14.538Z,2.56
2023-03-17T18:51:42.251Z,2.61
2023-03-17T18:54:11.005Z,2.38
2023-03-17T18:56:38.762Z,2.70
2023-03-17T18:59:06.543Z,2.57
2023-03-17T19:01:34.302Z,2.96
2023-03-17T19:04:03.897Z,2.91
2023-03-17T19:06:31.982Z,3.28
2023-03-17T19:08:59.826Z,2.75
2023-03-17T19:11:27.653Z,3.12
2023-03-17T19:13:55.398Z,2.82
2023-03-17T19:16:28.798Z,3.20
2023-03-17T19:18:57.491Z,3.25
2023-03-17T19:21:25.930Z,2.71
2023-03-17T19:23:53.949Z,2.71
2023-03-17T19:26:21.708Z,2.33
2023-03-17T19:28:49.517Z,2.65
2023-03-17T19:31:17.216Z,2.50
2023-03-17T19:33:44.997Z,2.08
2023-03-17T19:36:12.969Z,2.08
2023-03-17T19:38:41.157Z,1.90
2023-03-17T19:41:09.048Z,1.89
2023-03-17T19:43:41.193Z,1.72
2023-03-17T19:46:10.372Z,1.84
2023-03-17T19:48:38.227Z,1.74
2023-03-17T19:51:06.289Z,1.64
2023-03-17T19:53:34.256Z,1.49
2023-03-17T19:56:01.999Z,1.35
2023-03-17T19:58:29.880Z,1.09
2023-03-17T20:00:57.584Z,1.16
2023-03-17T20:03:26.386Z,1.13
2023-03-17T20:05:54.411Z,1.09
2023-03-17T20:08:22.585Z,1.03
2023-03-17T20:10:54.098Z,1.35
2023-03-17T20:13:22.116Z,1.19
2023-03-17T20:15:51.551Z,1.40
2023-03-17T20:18:19.824Z,1.27
2023-03-17T20:20:54.052Z,1.25
2023-03-17T20:23:22.653Z,1.22
2023-03-17T20:25:50.737Z,0.89
2023-03-17T20:28:18.650Z,0.96
2023-03-17T20:30:46.406Z,1.29
2023-03-17T20:33:14.276Z,1.82
2023-03-17T20:35:43.324Z,1.67
2023-03-17T20:38:11.177Z,1.88
2023-03-17T20:40:39.332Z,1.87
2023-03-17T20:43:07.876Z,1.89
2023-03-17T20:45:35.810Z,1.59
2023-03-17T20:48:05.042Z,1.96
2023-03-17T20:50:33.650Z,1.82
2023-03-17T20:53:01.755Z,1.69
2023-03-17T20:55:30.812Z,0.99
2023-03-17T20:57:59.901Z,1.20
2023-03-17T21:00:27.945Z,0.81
2023-03-17T21:02:55.930Z,1.68
2023-03-17T21:05:25.190Z,1.92
2023-03-17T21:07:53.255Z,1.80
2023-03-17T21:10:21.145Z,1.96
2023-03-17T21:12:48.887Z,1.69
2023-03-17T21:15:16.766Z,2.04
2023-03-17T21:17:44.552Z,1.87
2023-03-17T21:20:12.764Z,0.84
2023-03-17T21:22:40.961Z,0.95
2023-03-17T21:25:09.768Z,1.53
2023-03-17T21:27:37.835Z,1.09
2023-03-17T21:30:09.820Z,1.42
2023-03-17T21:32:38.186Z,1.43
2023-03-17T21:35:06.553Z,1.20
2023-03-17T21:37:34.717Z,1.58
2023-03-17T21:40:02.901Z,1.12
2023-03-17T21:42:30.772Z,1.04
2023-03-17T21:44:58.470Z,0.23
2023-03-17T21:47:26.399Z,0.55
2023-03-17T21:49:54.065Z,0.94
2023-03-17T21:52:22.033Z,1.15
2023-03-17T21:54:50.450Z,0.24
2023-03-17T21:57:18.198Z,0.95
2023-03-17T21:59:47.533Z,0.42
2023-03-17T22:02:17.594Z,0.24
2023-03-17T22:04:46.766Z,-0.14
2023-03-17T22:07:14.548Z,0.20
2023-03-17T22:09:42.654Z,0.35
2023-03-17T22:12:10.868Z,0.53
2023-03-17T22:14:38.730Z,0.53
2023-03-17T22:17:06.437Z,0.26
2023-03-17T22:19:34.417Z,-0.20
2023-03-17T22:22:02.649Z,0.32
2023-03-17T22:24:31.579Z,-0.30
2023-03-17T22:26:59.529Z,-0.05
2023-03-17T22:29:27.233Z,0.43
2023-03-17T22:31:55.011Z,0.20
2023-03-17T22:34:23.364Z,0.58
2023-03-17T22:36:51.415Z,0.27
2023-03-17T22:39:19.125Z,0.13
2023-03-17T22:41:46.804Z,-0.10
2023-03-17T22:44:14.585Z,0.16
2023-03-17T22:46:42.384Z,0.31
2023-03-17T22:49:10.232Z,0.36
2023-03-17T22:51:38.130Z,0.51
2023-03-17T22:54:05.892Z,0.88
2023-03-17T22:56:33.548Z,0.86
2023-03-17T22:59:01.899Z,0.80
2023-03-17T23:01:29.751Z,0.96
2023-03-17T23:03:57.644Z,0.87
2023-03-17T23:06:25.699Z,0.73
2023-03-17T23:08:53.463Z,0.69
2023-03-17T23:11:23.462Z,0.43
2023-03-17T23:13:52.630Z,0.64
2023-03-17T23:16:21.620Z,-0.10
2023-03-17T23:18:49.517Z,0.09
2023-03-17T23:21:30.192Z,0.23
2023-03-17T23:23:58.145Z,0.09
2023-03-17T23:26:25.935Z,-0.08
2023-03-17T23:28:53.821Z,-0.52
2023-03-17T23:31:22.491Z,-0.05
2023-03-17T23:33:50.601Z,0.16
2023-03-17T23:36:18.364Z,0.34
2023-03-17T23:38:46.153Z,0.48
2023-03-17T23:41:14.825Z,0.63
2023-03-17T23:43:42.572Z,0.51
2023-03-17T23:46:10.470Z,0.81
2023-03-17T23:48:38.214Z,0.79
2023-03-17T23:51:05.917Z,0.66
2023-03-17T23:53:33.965Z,0.88
2023-03-17T23:56:01.678Z,0.52
2023-03-17T23:58:29.411Z,0.16
